createdAt,value
2022-08-02T00:01:12.012Z,49.70
2022-08-02T00:03:40.344Z,49.70
2022-08-02T00:06:08.768Z,49.80
2022-08-02T00:08:37.070Z,49.80
2022-08-02T00:11:06.798Z,49.80
2022-08-02T00:13:35.173Z,49.90
2022-08-02T00:16:04.163Z,49.80
2022-08-02T00:18:32.516Z,49.90
2022-08-02T00:21:00.979Z,49.90
2022-08-02T00:23:29.273Z,49.90
2022-08-02T00:25:58.087Z,49.90
2022-08-02T00:28:28.406Z,49.90
2022-08-02T00:30:58.283Z,50.00
2022-08-02T00:34:27.210Z,50.00
2022-08-02T00:36:15.447Z,50.10
2022-08-02T00:38:44.179Z,50.10
2022-08-02T00:41:16.748Z,50.10
2022-08-02T00:43:48.655Z,50.10
2022-08-02T00:46:18.402Z,50.10
2022-08-02T00:48:47.571Z,50.10
2022-08-02T00:51:18.907Z,50.10
2022-08-02T00:53:47.392Z,50.10
2022-08-02T00:56:15.733Z,50.10
2022-08-02T00:58:44.032Z,50.20
2022-08-02T01:01:13.838Z,50.20
2022-08-02T01:03:42.181Z,50.20
2022-08-02T01:06:11.204Z,50.20
2022-08-02T01:08:40.147Z,50.20
2022-08-02T01:11:08.754Z,50.20
2022-08-02T01:13:37.208Z,50.30
2022-08-02T01:16:15.559Z,50.20
2022-08-02T01:18:50.905Z,51.00
2022-08-02T01:21:36.803Z,50.40
2022-08-02T01:24:22.894Z,50.50
2022-08-02T01:27:01.797Z,50.40
2022-08-02T01:29:36.247Z,50.40
2022-08-02T01:32:11.002Z,50.30
2022-08-02T01:34:45.181Z,50.30
2022-08-02T01:37:20.522Z,50.40
2022-08-02T01:39:53.440Z,50.50
2022-08-02T01:42:25.849Z,50.50
2022-08-02T01:44:58.292Z,50.50
2022-08-02T01:47:36.489Z,50.50
2022-08-02T01:50:08.803Z,50.70
2022-08-02T01:52:41.467Z,50.70
2022-08-02T01:55:33.352Z,50.70
2022-08-02T01:58:06.493Z,50.70
2022-08-02T02:00:40.307Z,50.80
2022-08-02T02:03:14.333Z,50.80
2022-08-02T02:05:43.990Z,50.90
2022-08-02T02:08:13.350Z,50.80
2022-08-02T02:10:43.736Z,50.80
2022-08-02T02:13:17.636Z,50.90
2022-08-02T02:15:49.644Z,51.20
2022-08-02T02:18:22.993Z,51.00
2022-08-02T02:20:51.652Z,51.00
2022-08-02T02:23:22.565Z,50.90
2022-08-02T02:25:55.836Z,51.00
2022-08-02T02:28:30.204Z,50.90
2022-08-02T02:31:07.818Z,51.70
2022-08-02T02:33:41.866Z,51.10
2022-08-02T02:36:12.101Z,51.00
2022-08-02T02:38:41.508Z,51.00
2022-08-02T02:41:10.617Z,51.10
2022-08-02T02:43:39.838Z,51.00
2022-08-02T02:46:11.257Z,51.00
2022-08-02T02:48:40.603Z,51.20
2022-08-02T02:51:13.874Z,51.10
2022-08-02T02:54:30.733Z,51.20
2022-08-02T02:56:33.429Z,51.10
2022-08-02T02:59:02.291Z,51.10
2022-08-02T03:01:55.140Z,51.10
2022-08-02T03:04:22.567Z,51.20
2022-08-02T03:06:50.952Z,51.20
2022-08-02T03:09:19.277Z,51.20
2022-08-02T03:11:47.991Z,51.20
2022-08-02T03:14:19.341Z,51.20
2022-08-02T03:16:51.899Z,51.30
2022-08-02T03:19:21.877Z,51.40
2022-08-02T03:21:57.687Z,51.40
2022-08-02T03:24:28.333Z,51.40
2022-08-02T03:26:57.424Z,51.40
2022-08-02T03:29:26.001Z,51.50
2022-08-02T03:31:57.417Z,51.50
2022-08-02T03:34:26.308Z,51.50
2022-08-02T03:36:58.198Z,51.50
2022-08-02T03:39:27.614Z,51.60
2022-08-02T03:41:56.625Z,51.50
2022-08-02T03:44:26.701Z,51.50
2022-08-02T03:46:56.521Z,51.60
2022-08-02T03:49:25.890Z,51.60
2022-08-02T03:51:54.824Z,51.60
2022-08-02T03:54:23.837Z,51.70
2022-08-02T03:57:04.082Z,51.80
2022-08-02T03:59:42.966Z,51.90
2022-08-02T04:02:13.740Z,52.10
2022-08-02T04:04:42.459Z,51.90
2022-08-02T04:07:10.801Z,51.90
2022-08-02T04:09:39.793Z,51.90
2022-08-02T04:12:09.019Z,52.00
2022-08-02T04:14:37.552Z,52.10
2022-08-02T04:17:09.755Z,52.10
2022-08-02T04:19:45.146Z,52.20
2022-08-02T04:22:22.645Z,52.20
2022-08-02T04:24:55.697Z,52.30
2022-08-02T04:27:51.016Z,52.20
2022-08-02T04:30:14.361Z,52.30
2022-08-02T04:32:43.420Z,52.30
2022-08-02T04:35:21.446Z,52.30
2022-08-02T04:38:09.624Z,52.50
2022-08-02T04:40:39.447Z,52.50
2022-08-02T04:43:08.598Z,52.50
2022-08-02T04:45:38.451Z,52.60
2022-08-02T04:48:08.014Z,52.60
2022-08-02T04:50:37.733Z,52.70
2022-08-02T04:53:06.070Z,52.70
2022-08-02T04:55:34.400Z,52.80
2022-08-02T04:58:04.223Z,52.80
2022-08-02T05:00:38.176Z,52.80
2022-08-02T05:03:06.840Z,53.00
2022-08-02T05:05:37.012Z,53.10
2022-08-02T05:08:06.097Z,53.10
2022-08-02T05:10:34.448Z,53.20
2022-08-02T05:13:06.171Z,53.20
2022-08-02T05:15:34.613Z,53.30
2022-08-02T05:18:02.976Z,53.30
2022-08-02T05:20:31.393Z,53.30
2022-08-02T05:23:01.157Z,53.30
2022-08-02T05:25:29.607Z,53.30
2022-08-02T05:27:57.941Z,53.30
2022-08-02T05:30:26.454Z,53.30
2022-08-02T05:32:54.931Z,53.30
2022-08-02T05:35:24.983Z,53.30
2022-08-02T05:37:53.638Z,53.40
2022-08-02T05:40:26.090Z,53.40
2022-08-02T05:42:55.272Z,53.50
2022-08-02T05:45:24.057Z,53.50
2022-08-02T05:47:52.732Z,53.50
2022-08-02T05:50:21.815Z,53.60
2022-08-02T05:53:03.229Z,53.60
2022-08-02T05:55:36.670Z,53.80
2022-08-02T05:58:12.833Z,53.90
2022-08-02T06:00:42.917Z,53.90
2022-08-02T06:03:23.360Z,53.80
2022-08-02T06:06:03.027Z,54.00
2022-08-02T06:08:38.935Z,54.10
2022-08-02T06:11:14.379Z,54.00
2022-08-02T06:13:44.064Z,54.10
2022-08-02T06:16:14.142Z,54.10
2022-08-02T06:18:44.382Z,54.30
2022-08-02T06:22:32.139Z,54.30
2022-08-02T06:24:05.556Z,54.50
2022-08-02T06:26:36.867Z,54.50
2022-08-02T06:29:05.845Z,54.60
2022-08-02T06:31:34.271Z,54.60
2022-08-02T06:34:02.596Z,54.60
2022-08-02T06:36:39.591Z,54.60
2022-08-02T06:39:18.255Z,54.80
2022-08-02T06:41:51.709Z,55.00
2022-08-02T06:44:49.518Z,55.00
2022-08-02T06:47:19.452Z,54.80
2022-08-02T06:49:52.789Z,54.70
2022-08-02T06:52:28.741Z,54.70
2022-08-02T06:54:59.946Z,54.80
2022-08-02T06:57:30.925Z,54.80
2022-08-02T07:00:01.838Z,54.90
2022-08-02T07:02:30.709Z,54.70
2022-08-02T07:04:59.409Z,54.60
2022-08-02T07:07:28.334Z,54.80
2022-08-02T07:10:00.628Z,54.80
2022-08-02T07:12:33.623Z,54.70
2022-08-02T07:15:03.738Z,54.70
2022-08-02T07:17:32.866Z,54.60
2022-08-02T07:20:02.167Z,54.70
2022-08-02T07:22:30.806Z,55.20
2022-08-02T07:25:01.109Z,54.50
2022-08-02T07:27:31.080Z,54.50
2022-08-02T07:30:00.548Z,54.40
2022-08-02T07:32:32.956Z,54.40
2022-08-02T07:35:04.068Z,54.50
2022-08-02T07:37:54.920Z,54.40
2022-08-02T07:40:26.313Z,54.30
2022-08-02T07:43:03.525Z,54.30
2022-08-02T07:45:35.705Z,54.30
2022-08-02T07:48:06.103Z,54.10
2022-08-02T07:50:34.890Z,54.00
2022-08-02T07:53:03.264Z,54.00
2022-08-02T07:55:39.816Z,54.60
2022-08-02T07:58:13.171Z,53.90
2022-08-02T08:00:44.099Z,54.10
2022-08-02T08:03:13.164Z,54.00
2022-08-02T08:05:42.176Z,54.00
2022-08-02T08:08:16.716Z,54.00
2022-08-02T08:10:46.371Z,54.10
2022-08-02T08:13:17.161Z,54.10
2022-08-02T08:15:52.165Z,54.10
2022-08-02T08:18:22.101Z,54.20
2022-08-02T08:20:51.643Z,54.10
2022-08-02T08:23:20.089Z,54.00
2022-08-02T08:25:48.500Z,53.90
2022-08-02T08:28:18.475Z,53.80
2022-08-02T08:30:47.517Z,53.70
2022-08-02T08:33:16.026Z,53.40
2022-08-02T08:35:44.541Z,53.30
2022-08-02T08:38:12.869Z,53.20
2022-08-02T08:40:42.176Z,53.10
2022-08-02T08:43:10.678Z,52.90
2022-08-02T08:45:40.667Z,52.70
2022-08-02T08:48:15.673Z,52.70
2022-08-02T08:51:03.104Z,52.60
2022-08-02T08:53:38.665Z,52.30
2022-08-02T08:56:15.449Z,52.40
2022-08-02T08:58:45.347Z,52.70
2022-08-02T09:01:16.845Z,52.60
2022-08-02T09:03:45.706Z,52.30
2022-08-02T09:06:14.083Z,52.20
2022-08-02T09:08:42.382Z,52.00
2022-08-02T09:11:16.208Z,52.10
2022-08-02T09:13:52.859Z,51.80
2022-08-02T09:16:35.325Z,51.30
2022-08-02T09:19:19.805Z,51.20
2022-08-02T09:21:51.883Z,51.20
2022-08-02T09:24:22.833Z,51.20
2022-08-02T09:26:52.711Z,51.10
2022-08-02T09:29:24.967Z,51.10
2022-08-02T09:32:04.497Z,51.00
2022-08-02T09:34:50.021Z,50.70
2022-08-02T09:37:26.476Z,50.20
2022-08-02T09:39:59.601Z,51.00
2022-08-02T09:42:30.801Z,50.50
2022-08-02T09:45:01.945Z,50.60
2022-08-02T09:47:37.166Z,50.50
2022-08-02T09:50:06.862Z,50.00
2022-08-02T09:52:43.043Z,49.70
2022-08-02T09:55:13.183Z,49.50
2022-08-02T09:57:41.698Z,49.30
2022-08-02T10:00:14.985Z,49.30
2022-08-02T10:03:14.855Z,49.30
2022-08-02T10:05:55.727Z,48.90
2022-08-02T10:08:26.045Z,49.60
2022-08-02T10:11:00.636Z,49.50
2022-08-02T10:13:35.402Z,49.50
2022-08-02T10:16:06.289Z,48.90
2022-08-02T10:18:39.228Z,49.00
2022-08-02T10:21:16.436Z,48.80
2022-08-02T10:23:47.311Z,48.90
2022-08-02T10:26:18.934Z,48.60
2022-08-02T10:28:51.350Z,48.20
2022-08-02T10:31:25.180Z,47.80
2022-08-02T10:33:57.067Z,47.60
2022-08-02T10:36:27.346Z,47.50
2022-08-02T10:38:58.720Z,48.00
2022-08-02T10:41:49.195Z,47.20
2022-08-02T10:44:27.330Z,46.30
2022-08-02T10:47:24.092Z,46.60
2022-08-02T10:49:56.355Z,46.10
2022-08-02T10:52:25.676Z,46.40
2022-08-02T10:54:58.941Z,46.60
2022-08-02T10:57:29.955Z,46.20
2022-08-02T11:00:00.193Z,46.40
2022-08-02T11:02:41.238Z,46.50
2022-08-02T11:05:15.605Z,46.40
2022-08-02T11:07:47.865Z,46.30
2022-08-02T11:10:40.137Z,46.50
2022-08-02T11:13:15.089Z,45.90
2022-08-02T11:16:01.629Z,46.70
2022-08-02T11:19:06.788Z,45.60
2022-08-02T11:21:37.758Z,45.70
2022-08-02T11:24:28.385Z,45.90
2022-08-02T11:26:58.613Z,45.20
2022-08-02T11:29:38.316Z,45.90
2022-08-02T11:32:09.186Z,45.40
2022-08-02T11:34:38.506Z,45.90
2022-08-02T11:37:08.383Z,45.60
2022-08-02T11:39:36.875Z,44.90
2022-08-02T11:42:06.061Z,44.60
2022-08-02T11:44:42.611Z,44.20
2022-08-02T11:47:11.138Z,42.90
2022-08-02T11:49:39.689Z,43.00
2022-08-02T11:52:11.541Z,42.70
2022-08-02T11:54:42.716Z,42.50
2022-08-02T11:57:19.902Z,42.80
2022-08-02T11:59:51.844Z,42.40
2022-08-02T12:02:22.219Z,42.80
2022-08-02T12:04:58.145Z,42.80
2022-08-02T12:07:36.148Z,42.60
2022-08-02T12:10:09.747Z,42.30
2022-08-02T12:12:50.474Z,42.60
2022-08-02T12:15:35.079Z,42.00
2022-08-02T12:18:22.205Z,42.10
2022-08-02T12:20:50.620Z,42.80
2022-08-02T12:23:20.622Z,42.80
2022-08-02T12:26:02.257Z,42.50
2022-08-02T12:28:35.286Z,41.60
2022-08-02T12:31:03.872Z,42.00
2022-08-02T12:33:49.257Z,41.90
2022-08-02T12:36:18.507Z,41.40
2022-08-02T12:38:56.661Z,41.80
2022-08-02T12:41:30.886Z,41.00
2022-08-02T12:44:00.980Z,41.90
2022-08-02T12:46:31.476Z,41.70
2022-08-02T12:49:18.615Z,41.50
2022-08-02T12:51:56.714Z,40.40
2022-08-02T12:54:33.321Z,41.00
2022-08-02T12:57:12.657Z,40.50
2022-08-02T12:59:44.572Z,40.00
2022-08-02T13:02:14.647Z,40.40
2022-08-02T13:04:49.775Z,40.40
2022-08-02T13:07:19.919Z,40.30
2022-08-02T13:09:50.242Z,40.30
2022-08-02T13:12:18.621Z,40.10
2022-08-02T13:14:46.957Z,40.10
2022-08-02T13:17:15.347Z,40.10
2022-08-02T13:19:43.652Z,40.00
2022-08-02T13:22:11.973Z,40.00
2022-08-02T13:24:55.781Z,40.10
2022-08-02T13:27:28.680Z,40.00
2022-08-02T13:29:58.539Z,39.70
2022-08-02T13:32:27.955Z,40.00
2022-08-02T13:34:56.789Z,40.00
2022-08-02T13:37:25.895Z,39.80
2022-08-02T13:40:19.882Z,39.80
2022-08-02T13:42:44.323Z,39.70
2022-08-02T13:45:14.232Z,39.00
2022-08-02T13:48:04.197Z,39.00
2022-08-02T13:50:33.878Z,38.80
2022-08-02T13:53:02.373Z,38.80
2022-08-02T13:55:30.797Z,38.60
2022-08-02T13:58:00.739Z,38.40
2022-08-02T14:00:35.810Z,38.30
2022-08-02T14:03:07.055Z,38.30
2022-08-02T14:05:47.296Z,38.30
2022-08-02T14:08:18.324Z,38.30
2022-08-02T14:10:47.921Z,38.50
2022-08-02T14:13:18.005Z,38.50
2022-08-02T14:15:47.075Z,38.50
2022-08-02T14:18:15.824Z,38.40
2022-08-02T14:20:45.720Z,38.40
2022-08-02T14:23:14.063Z,38.30
2022-08-02T14:25:42.662Z,37.90
2022-08-02T14:28:10.952Z,37.70
2022-08-02T14:30:40.702Z,37.90
2022-08-02T14:33:09.355Z,38.20
2022-08-02T14:35:37.737Z,37.70
2022-08-02T14:38:06.067Z,37.90
2022-08-02T14:40:35.032Z,37.80
2022-08-02T14:43:04.210Z,37.70
2022-08-02T14:45:40.382Z,37.50
2022-08-02T14:48:12.926Z,37.60
2022-08-02T14:50:41.381Z,37.40
2022-08-02T14:53:12.625Z,37.50
2022-08-02T14:55:43.324Z,37.40
2022-08-02T14:58:12.606Z,37.50
2022-08-02T15:00:43.743Z,37.30
2022-08-02T15:03:14.538Z,37.20
2022-08-02T15:05:42.858Z,37.10
2022-08-02T15:08:11.182Z,37.30
2022-08-02T15:10:45.655Z,37.10
2022-08-02T15:13:14.024Z,37.00
2022-08-02T15:15:43.699Z,37.00
2022-08-02T15:18:15.031Z,37.00
2022-08-02T15:20:51.516Z,37.10
2022-08-02T15:23:37.637Z,37.10
2022-08-02T15:26:07.730Z,37.30
2022-08-02T15:28:37.068Z,37.20
2022-08-02T15:31:05.459Z,37.30
2022-08-02T15:33:35.098Z,37.20
2022-08-02T15:36:03.547Z,37.10
2022-08-02T15:38:31.894Z,37.30
2022-08-02T15:41:00.246Z,37.60
2022-08-02T15:43:28.822Z,37.60
2022-08-02T15:45:57.153Z,37.60
2022-08-02T15:48:25.443Z,37.50
2022-08-02T15:50:55.248Z,37.40
2022-08-02T15:53:23.623Z,37.20
2022-08-02T15:56:06.491Z,37.10
2022-08-02T15:58:44.576Z,37.30
2022-08-02T16:01:13.390Z,37.10
2022-08-02T16:03:41.813Z,37.20
2022-08-02T16:06:11.882Z,37.20
2022-08-02T16:08:44.625Z,37.10
2022-08-02T16:11:22.392Z,37.10
2022-08-02T16:13:53.556Z,37.20
2022-08-02T16:16:23.960Z,37.20
2022-08-02T16:18:52.892Z,37.00
2022-08-02T16:21:24.656Z,36.90
2022-08-02T16:24:01.910Z,36.90
2022-08-02T16:26:34.111Z,37.00
2022-08-02T16:29:04.980Z,37.10
2022-08-02T16:31:34.384Z,36.90
2022-08-02T16:34:04.145Z,36.80
2022-08-02T16:36:33.834Z,36.70
2022-08-02T16:39:02.116Z,36.60
2022-08-02T16:41:45.467Z,36.50
2022-08-02T16:44:29.670Z,36.50
2022-08-02T16:47:01.487Z,36.60
2022-08-02T16:50:07.100Z,36.30
2022-08-02T16:52:20.089Z,36.40
2022-08-02T16:57:43.385Z,36.70
2022-08-02T17:00:16.110Z,36.60
2022-08-02T17:02:47.025Z,36.50
2022-08-02T17:05:16.046Z,36.60
2022-08-02T17:08:07.756Z,36.50
2022-08-02T17:10:36.206Z,36.40
2022-08-02T17:16:15.848Z,36.50
2022-08-02T17:18:49.220Z,36.30
2022-08-02T17:21:18.217Z,36.40
2022-08-02T17:24:05.134Z,36.40
2022-08-02T17:26:35.737Z,36.40
2022-08-02T17:29:15.248Z,36.50
2022-08-02T17:32:05.816Z,36.50
2022-08-02T17:34:37.024Z,36.50
2022-08-02T17:37:06.472Z,36.60
2022-08-02T17:39:44.187Z,36.60
2022-08-02T17:42:23.051Z,36.40
2022-08-02T17:44:53.791Z,36.60
2022-08-02T17:47:22.615Z,36.50
2022-08-02T17:49:59.409Z,36.30
2022-08-02T17:52:52.174Z,36.40
2022-08-02T17:55:19.348Z,36.20
2022-08-02T17:57:58.321Z,36.30
2022-08-02T18:00:37.936Z,36.30
2022-08-02T18:03:10.226Z,37.00
2022-08-02T18:05:53.611Z,36.40
2022-08-02T18:08:24.664Z,36.50
2022-08-02T18:10:55.787Z,36.70
2022-08-02T18:13:24.708Z,36.70
2022-08-02T18:15:59.081Z,36.80
2022-08-02T18:18:29.697Z,36.90
2022-08-02T18:21:15.994Z,36.80
2022-08-02T18:23:58.575Z,36.90
2022-08-02T18:26:29.695Z,37.00
2022-08-02T18:28:59.556Z,37.00
2022-08-02T18:31:28.106Z,37.10
2022-08-02T18:34:02.070Z,37.10
2022-08-02T18:36:31.519Z,37.00
2022-08-02T18:39:07.946Z,37.20
2022-08-02T18:41:38.392Z,37.10
2022-08-02T18:44:07.320Z,37.20
2022-08-02T18:46:35.746Z,37.20
2022-08-02T18:49:13.468Z,37.80
2022-08-02T18:51:44.736Z,37.30
2022-08-02T18:54:13.284Z,37.40
2022-08-02T18:56:47.121Z,37.50
2022-08-02T18:59:16.803Z,37.50
2022-08-02T19:01:50.781Z,37.60
2022-08-02T19:04:27.548Z,37.70
2022-08-02T19:07:07.166Z,37.80
2022-08-02T19:09:39.989Z,37.90
2022-08-02T19:12:12.244Z,38.00
2022-08-02T19:14:41.173Z,38.00
2022-08-02T19:17:53.047Z,38.00
2022-08-02T19:19:58.557Z,38.10
2022-08-02T19:22:27.340Z,38.10
2022-08-02T19:25:01.002Z,38.10
2022-08-02T19:27:32.567Z,38.40
2022-08-02T19:30:02.897Z,38.30
2022-08-02T19:32:39.709Z,38.50
2022-08-02T19:35:19.120Z,38.60
2022-08-02T19:38:07.236Z,38.70
2022-08-02T19:40:35.905Z,38.80
2022-08-02T19:44:24.048Z,38.80
2022-08-02T19:45:57.162Z,38.90
2022-08-02T19:48:27.259Z,39.00
2022-08-02T19:51:01.107Z,39.10
2022-08-02T19:53:48.486Z,39.20
2022-08-02T19:56:24.883Z,39.30
2022-08-02T19:58:57.841Z,39.30
2022-08-02T20:01:38.345Z,39.30
2022-08-02T20:04:13.636Z,39.40
2022-08-02T20:06:45.694Z,39.60
2022-08-02T20:09:16.965Z,39.70
2022-08-02T20:11:54.960Z,39.80
2022-08-02T20:14:28.101Z,39.90
2022-08-02T20:16:57.371Z,40.00
2022-08-02T20:19:29.151Z,40.00
2022-08-02T20:21:59.186Z,40.10
2022-08-02T20:24:29.748Z,40.20
2022-08-02T20:26:59.467Z,40.20
2022-08-02T20:29:48.377Z,40.20
2022-08-02T20:32:23.580Z,40.50
2022-08-02T20:34:53.226Z,40.50
2022-08-02T20:37:59.454Z,40.60
2022-08-02T20:40:17.127Z,40.60
2022-08-02T20:42:47.696Z,40.70
2022-08-02T20:45:19.040Z,40.70
2022-08-02T20:47:50.737Z,40.90
2022-08-02T20:50:37.317Z,41.00
2022-08-02T20:53:07.412Z,41.00
2022-08-02T20:55:42.357Z,41.10
2022-08-02T20:58:12.023Z,41.20
2022-08-02T21:00:43.724Z,41.20
2022-08-02T21:03:14.242Z,41.30
2022-08-02T21:05:54.740Z,41.30
2022-08-02T21:08:24.978Z,41.30
2022-08-02T21:10:55.548Z,41.50
2022-08-02T21:13:26.436Z,41.50
2022-08-02T21:16:01.921Z,41.60
2022-08-02T21:18:40.871Z,41.60
2022-08-02T21:21:11.196Z,41.70
2022-08-02T21:23:44.986Z,41.80
2022-08-02T21:26:19.798Z,41.80
2022-08-02T21:28:54.197Z,41.90
2022-08-02T21:31:24.106Z,41.90
2022-08-02T21:34:00.383Z,42.00
2022-08-02T21:36:30.728Z,42.00
2022-08-02T21:39:04.522Z,42.10
2022-08-02T21:41:39.658Z,42.10
2022-08-02T21:44:15.964Z,42.30
2022-08-02T21:46:49.443Z,42.20
2022-08-02T21:49:20.130Z,42.50
2022-08-02T21:51:50.302Z,42.40
2022-08-02T21:54:21.291Z,42.50
2022-08-02T21:56:52.752Z,42.50
2022-08-02T21:59:26.131Z,42.50
2022-08-02T22:01:57.765Z,42.60
2022-08-02T22:04:27.108Z,42.80
2022-08-02T22:06:56.423Z,42.70
2022-08-02T22:09:44.206Z,42.70
2022-08-02T22:12:19.222Z,42.70
2022-08-02T22:14:53.988Z,42.80
2022-08-02T22:17:52.075Z,42.90
2022-08-02T22:20:18.234Z,43.00
2022-08-02T22:22:50.789Z,43.10
2022-08-02T22:25:26.942Z,43.10
2022-08-02T22:28:37.588Z,43.10
2022-08-02T22:34:05.876Z,43.10
2022-08-02T22:36:54.710Z,43.30
2022-08-02T22:39:23.234Z,43.20
2022-08-02T22:42:06.381Z,43.30
2022-08-02T22:44:35.862Z,43.40
2022-08-02T22:47:14.782Z,43.40
2022-08-02T22:49:53.178Z,43.50
2022-08-02T22:52:23.840Z,43.60
2022-08-02T22:54:52.524Z,43.50
2022-08-02T22:57:30.177Z,43.70
2022-08-02T22:58:35.575Z,36.50
2022-08-02T22:58:49.640Z,36.50
2022-08-02T23:00:00.136Z,43.70
2022-08-02T23:02:28.577Z,43.70
2022-08-02T23:04:59.905Z,43.80
2022-08-02T23:07:28.888Z,43.70
2022-08-02T23:10:07.869Z,43.80
2022-08-02T23:12:36.586Z,43.90
2022-08-02T23:15:09.866Z,44.00
2022-08-02T23:18:02.465Z,44.20
2022-08-02T23:20:32.997Z,44.10
2022-08-02T23:23:01.421Z,44.20
2022-08-02T23:25:29.891Z,44.10
2022-08-02T23:27:58.386Z,44.20
2022-08-02T23:30:27.137Z,44.20
2022-08-02T23:32:55.770Z,44.30
2022-08-02T23:35:24.301Z,44.30
2022-08-02T23:37:57.805Z,44.30
2022-08-02T23:40:39.121Z,44.40
2022-08-02T23:43:14.142Z,44.40
2022-08-02T23:45:46.457Z,44.50
2022-08-02T23:48:15.942Z,44.50
2022-08-02T23:50:44.271Z,44.50
2022-08-02T23:53:14.325Z,44.60
2022-08-02T23:55:42.940Z,44.70
2022-08-02T23:58:12.739Z,44.70
